sensor_id;sensor_type;location;lat;lon;timestamp;P1;P2;P0
69349;PMS5003;64554;43.452;4.934;2023-06-24T00:02:18;5.00;5.00;3.00
69349;PMS5003;64554;43.452;4.934;2023-06-24T00:04:45;4.60;4.60;3.20
69349;PMS5003;64554;43.452;4.934;2023-06-24T00:07:11;4.40;4.40;3.40
69349;PMS5003;64554;43.452;4.934;2023-06-24T00:09:38;7.60;5.60;3.40
69349;PMS5003;64554;43.452;4.934;2023-06-24T00:12:06;5.80;5.80;3.80
69349;PMS5003;64554;43.452;4.934;2023-06-24T00:14:32;5.75;4.75;3.25
69349;PMS5003;64554;43.452;4.934;2023-06-24T00:16:59;5.00;5.00;2.50
69349;PMS5003;64554;43.452;4.934;2023-06-24T00:19:26;7.00;6.00;3.50
69349;PMS5003;64554;43.452;4.934;2023-06-24T00:21:53;7.00;7.00;5.00
69349;PMS5003;64554;43.452;4.934;2023-06-24T00:24:20;5.00;5.00;2.60
69349;PMS5003;64554;43.452;4.934;2023-06-24T00:26:47;5.40;5.40;3.40
69349;PMS5003;64554;43.452;4.934;2023-06-24T00:29:14;4.25;4.25;3.00
69349;PMS5003;64554;43.452;4.934;2023-06-24T00:31:41;6.75;6.75;4.75
69349;PMS5003;64554;43.452;4.934;2023-06-24T00:34:08;7.00;5.00;4.00
69349;PMS5003;64554;43.452;4.934;2023-06-24T00:36:34;8.50;7.50;2.75
69349;PMS5003;64554;43.452;4.934;2023-06-24T00:39:05;6.40;6.40;3.40
69349;PMS5003;64554;43.452;4.934;2023-06-24T00:41:35;6.40;6.40;4.60
69349;PMS5003;64554;43.452;4.934;2023-06-24T00:44:02;5.25;5.25;2.75
69349;PMS5003;64554;43.452;4.934;2023-06-24T00:46:28;5.40;5.40;4.20
69349;PMS5003;64554;43.452;4.934;2023-06-24T00:48:55;5.80;5.00;3.60
69349;PMS5003;64554;43.452;4.934;2023-06-24T00:51:24;5.40;5.40;3.40
69349;PMS5003;64554;43.452;4.934;2023-06-24T00:53:57;4.25;4.25;3.00
69349;PMS5003;64554;43.452;4.934;2023-06-24T00:56:25;6.00;6.00;3.25
69349;PMS5003;64554;43.452;4.934;2023-06-24T00:58:53;7.00;5.00;3.00
69349;PMS5003;64554;43.452;4.934;2023-06-24T01:01:20;7.25;6.00;3.25
69349;PMS5003;64554;43.452;4.934;2023-06-24T01:03:47;7.50;7.50;4.25
69349;PMS5003;64554;43.452;4.934;2023-06-24T01:06:14;5.80;5.80;3.80
69349;PMS5003;64554;43.452;4.934;2023-06-24T01:08:41;7.25;5.75;4.25
69349;PMS5003;64554;43.452;4.934;2023-06-24T01:11:08;4.75;4.75;4.25
69349;PMS5003;64554;43.452;4.934;2023-06-24T01:13:35;6.00;6.00;4.40
69349;PMS5003;64554;43.452;4.934;2023-06-24T01:16:04;3.60;3.60;2.60
69349;PMS5003;64554;43.452;4.934;2023-06-24T01:18:40;5.00;4.00;3.00
69349;PMS5003;64554;43.452;4.934;2023-06-24T01:21:10;5.33;5.33;3.33
69349;PMS5003;64554;43.452;4.934;2023-06-24T01:23:45;4.80;4.80;2.40
69349;PMS5003;64554;43.452;4.934;2023-06-24T01:26:21;6.00;6.00;2.50
69349;PMS5003;64554;43.452;4.934;2023-06-24T01:29:04;6.40;5.40;3.40
69349;PMS5003;64554;43.452;4.934;2023-06-24T01:31:39;6.40;5.60;3.60
69349;PMS5003;64554;43.452;4.934;2023-06-24T01:36:55;5.00;4.00;2.50
69349;PMS5003;64554;43.452;4.934;2023-06-24T01:39:23;6.00;6.00;4.00
69349;PMS5003;64554;43.452;4.934;2023-06-24T01:41:54;5.60;5.60;3.00
69349;PMS5003;64554;43.452;4.934;2023-06-24T01:44:21;4.80;4.80;3.40
69349;PMS5003;64554;43.452;4.934;2023-06-24T01:46:49;6.20;5.20;2.20
69349;PMS5003;64554;43.452;4.934;2023-06-24T01:49:19;5.50;5.50;3.50
69349;PMS5003;64554;43.452;4.934;2023-06-24T01:51:47;5.25;5.25;3.25
69349;PMS5003;64554;43.452;4.934;2023-06-24T01:54:15;4.25;4.25;3.00
69349;PMS5003;64554;43.452;4.934;2023-06-24T01:56:45;5.60;5.60;4.00
69349;PMS5003;64554;43.452;4.934;2023-06-24T01:59:14;8.00;5.50;3.50
69349;PMS5003;64554;43.452;4.934;2023-06-24T02:01:42;7.33;6.33;4.00
69349;PMS5003;64554;43.452;4.934;2023-06-24T02:04:10;5.00;5.00;3.50
69349;PMS5003;64554;43.452;4.934;2023-06-24T02:06:38;5.50;5.50;3.25
69349;PMS5003;64554;43.452;4.934;2023-06-24T02:09:06;6.25;6.25;3.50
69349;PMS5003;64554;43.452;4.934;2023-06-24T02:11:34;7.60;7.20;4.40
69349;PMS5003;64554;43.452;4.934;2023-06-24T02:14:02;5.00;5.00;3.25
69349;PMS5003;64554;43.452;4.934;2023-06-24T02:16:32;5.60;4.40;2.40
69349;PMS5003;64554;43.452;4.934;2023-06-24T02:18:59;6.60;5.40;2.80
69349;PMS5003;64554;43.452;4.934;2023-06-24T02:21:28;6.00;5.50;3.50
69349;PMS5003;64554;43.452;4.934;2023-06-24T02:23:55;5.00;5.00;3.50
69349;PMS5003;64554;43.452;4.934;2023-06-24T02:26:23;6.00;6.00;3.50
69349;PMS5003;64554;43.452;4.934;2023-06-24T02:28:49;7.25;6.75;4.00
69349;PMS5003;64554;43.452;4.934;2023-06-24T02:31:16;6.50;6.50;4.50
69349;PMS5003;64554;43.452;4.934;2023-06-24T02:33:44;6.00;5.60;4.00
69349;PMS5003;64554;43.452;4.934;2023-06-24T02:36:10;7.25;7.25;3.00
69349;PMS5003;64554;43.452;4.934;2023-06-24T02:38:37;8.00;6.60;4.60
69349;PMS5003;64554;43.452;4.934;2023-06-24T02:41:04;6.25;6.00;4.00
69349;PMS5003;64554;43.452;4.934;2023-06-24T02:43:31;6.25;6.25;3.75
69349;PMS5003;64554;43.452;4.934;2023-06-24T02:45:58;9.50;6.00;3.50
69349;PMS5003;64554;43.452;4.934;2023-06-24T02:48:26;7.00;6.40;4.00
69349;PMS5003;64554;43.452;4.934;2023-06-24T02:50:55;5.40;5.40;3.40
69349;PMS5003;64554;43.452;4.934;2023-06-24T02:53:21;6.40;6.40;4.40
69349;PMS5003;64554;43.452;4.934;2023-06-24T02:55:48;4.00;4.00;2.50
69349;PMS5003;64554;43.452;4.934;2023-06-24T02:58:15;8.20;6.00;4.40
69349;PMS5003;64554;43.452;4.934;2023-06-24T03:00:42;4.40;4.40;3.00
69349;PMS5003;64554;43.452;4.934;2023-06-24T03:03:09;5.60;5.60;3.20
69349;PMS5003;64554;43.452;4.934;2023-06-24T03:05:36;6.40;5.40;4.00
69349;PMS5003;64554;43.452;4.934;2023-06-24T03:08:03;8.00;6.00;4.00
69349;PMS5003;64554;43.452;4.934;2023-06-24T03:10:30;6.00;6.00;3.60
69349;PMS5003;64554;43.452;4.934;2023-06-24T03:12:57;10.00;10.00;4.75
69349;PMS5003;64554;43.452;4.934;2023-06-24T03:15:25;5.75;5.75;3.50
69349;PMS5003;64554;43.452;4.934;2023-06-24T03:17:53;6.80;6.80;4.40
69349;PMS5003;64554;43.452;4.934;2023-06-24T03:20:20;6.40;5.80;3.40
69349;PMS5003;64554;43.452;4.934;2023-06-24T03:22:47;6.00;6.00;4.00
69349;PMS5003;64554;43.452;4.934;2023-06-24T03:25:13;5.60;5.60;4.60
69349;PMS5003;64554;43.452;4.934;2023-06-24T03:27:40;5.00;5.00;3.25
69349;PMS5003;64554;43.452;4.934;2023-06-24T03:30:08;5.40;5.40;3.40
69349;PMS5003;64554;43.452;4.934;2023-06-24T03:32:34;7.20;6.00;4.00
69349;PMS5003;64554;43.452;4.934;2023-06-24T03:35:02;6.40;5.40;3.40
69349;PMS5003;64554;43.452;4.934;2023-06-24T03:37:29;6.00;6.00;4.75
69349;PMS5003;64554;43.452;4.934;2023-06-24T03:39:55;5.50;5.50;3.75
69349;PMS5003;64554;43.452;4.934;2023-06-24T03:42:22;5.60;5.60;2.60
69349;PMS5003;64554;43.452;4.934;2023-06-24T03:44:48;7.00;7.00;4.00
69349;PMS5003;64554;43.452;4.934;2023-06-24T03:47:15;5.40;5.40;3.40
69349;PMS5003;64554;43.452;4.934;2023-06-24T03:49:42;4.40;4.40;2.40
69349;PMS5003;64554;43.452;4.934;2023-06-24T03:52:08;5.80;5.80;3.20
69349;PMS5003;64554;43.452;4.934;2023-06-24T03:54:35;4.80;4.40;2.40
69349;PMS5003;64554;43.452;4.934;2023-06-24T03:57:02;7.00;7.00;4.50
69349;PMS5003;64554;43.452;4.934;2023-06-24T03:59:31;6.80;6.80;5.00
69349;PMS5003;64554;43.452;4.934;2023-06-24T04:01:57;5.25;5.25;4.50
69349;PMS5003;64554;43.452;4.934;2023-06-24T04:04:23;7.00;6.40;3.40
69349;PMS5003;64554;43.452;4.934;2023-06-24T04:06:50;6.00;6.00;4.00
69349;PMS5003;64554;43.452;4.934;2023-06-24T04:09:17;6.75;6.75;5.25
69349;PMS5003;64554;43.452;4.934;2023-06-24T04:11:43;6.00;6.00;3.75
69349;PMS5003;64554;43.452;4.934;2023-06-24T04:14:10;7.20;7.20;3.60
69349;PMS5003;64554;43.452;4.934;2023-06-24T04:16:36;5.60;5.60;3.60
69349;PMS5003;64554;43.452;4.934;2023-06-24T04:19:03;5.40;5.40;3.40
69349;PMS5003;64554;43.452;4.934;2023-06-24T04:21:29;5.60;5.60;3.60
69349;PMS5003;64554;43.452;4.934;2023-06-24T04:23:56;4.80;4.80;3.60
69349;PMS5003;64554;43.452;4.934;2023-06-24T04:26:22;5.00;5.00;3.00
69349;PMS5003;64554;43.452;4.934;2023-06-24T04:28:49;7.40;6.40;3.60
69349;PMS5003;64554;43.452;4.934;2023-06-24T04:31:16;5.25;5.25;4.00
69349;PMS5003;64554;43.452;4.934;2023-06-24T04:33:42;5.75;5.75;3.75
69349;PMS5003;64554;43.452;4.934;2023-06-24T04:36:09;6.25;5.75;3.25
69349;PMS5003;64554;43.452;4.934;2023-06-24T04:38:35;5.40;5.20;3.40
69349;PMS5003;64554;43.452;4.934;2023-06-24T04:41:02;4.40;4.40;3.40
69349;PMS5003;64554;43.452;4.934;2023-06-24T04:43:29;6.20;5.60;5.00
69349;PMS5003;64554;43.452;4.934;2023-06-24T04:45:55;4.00;4.00;3.60
69349;PMS5003;64554;43.452;4.934;2023-06-24T04:48:23;6.00;6.00;5.00
69349;PMS5003;64554;43.452;4.934;2023-06-24T04:50:49;4.80;4.80;3.40
69349;PMS5003;64554;43.452;4.934;2023-06-24T04:53:20;4.00;4.00;2.60
69349;PMS5003;64554;43.452;4.934;2023-06-24T04:55:47;8.20;7.60;4.60
69349;PMS5003;64554;43.452;4.934;2023-06-24T04:58:13;5.50;5.50;3.75
69349;PMS5003;64554;43.452;4.934;2023-06-24T05:00:40;5.60;5.60;4.40
69349;PMS5003;64554;43.452;4.934;2023-06-24T05:03:07;5.80;5.80;3.60
69349;PMS5003;64554;43.452;4.934;2023-06-24T05:05:33;5.25;5.25;3.25
69349;PMS5003;64554;43.452;4.934;2023-06-24T05:08:01;5.00;5.00;2.40
69349;PMS5003;64554;43.452;4.934;2023-06-24T05:10:28;8.00;8.00;4.40
69349;PMS5003;64554;43.452;4.934;2023-06-24T05:12:56;8.50;8.50;4.50
69349;PMS5003;64554;43.452;4.934;2023-06-24T05:15:22;5.50;5.50;3.50
69349;PMS5003;64554;43.452;4.934;2023-06-24T05:17:49;7.20;7.20;4.80
69349;PMS5003;64554;43.452;4.934;2023-06-24T05:20:19;5.40;4.80;3.80
69349;PMS5003;64554;43.452;4.934;2023-06-24T05:22:45;5.60;5.60;4.00
69349;PMS5003;64554;43.452;4.934;2023-06-24T05:25:12;7.20;5.60;4.60
69349;PMS5003;64554;43.452;4.934;2023-06-24T05:27:38;7.60;6.80;4.40
69349;PMS5003;64554;43.452;4.934;2023-06-24T05:30:05;6.00;6.00;4.25
69349;PMS5003;64554;43.452;4.934;2023-06-24T05:32:32;5.60;5.40;2.40
69349;PMS5003;64554;43.452;4.934;2023-06-24T05:34:59;4.60;4.60;3.60
69349;PMS5003;64554;43.452;4.934;2023-06-24T05:37:25;6.20;6.20;4.00
69349;PMS5003;64554;43.452;4.934;2023-06-24T05:39:52;6.00;6.00;4.00
69349;PMS5003;64554;43.452;4.934;2023-06-24T05:42:19;6.40;6.40;3.60
69349;PMS5003;64554;43.452;4.934;2023-06-24T05:44:45;6.20;6.20;5.00
69349;PMS5003;64554;43.452;4.934;2023-06-24T05:47:12;6.00;6.00;5.00
69349;PMS5003;64554;43.452;4.934;2023-06-24T05:49:38;7.20;7.20;4.80
69349;PMS5003;64554;43.452;4.934;2023-06-24T05:52:05;7.75;7.75;4.00
69349;PMS5003;64554;43.452;4.934;2023-06-24T05:54:32;8.20;8.20;4.00
69349;PMS5003;64554;43.452;4.934;2023-06-24T05:56:58;7.00;7.00;5.00
69349;PMS5003;64554;43.452;4.934;2023-06-24T05:59:25;5.00;5.00;3.00
69349;PMS5003;64554;43.452;4.934;2023-06-24T06:01:51;7.00;7.00;5.00
69349;PMS5003;64554;43.452;4.934;2023-06-24T06:04:18;6.20;6.20;5.00
69349;PMS5003;64554;43.452;4.934;2023-06-24T06:06:44;8.40;6.40;4.00
69349;PMS5003;64554;43.452;4.934;2023-06-24T06:09:11;5.40;5.40;4.40
69349;PMS5003;64554;43.452;4.934;2023-06-24T06:11:38;7.00;6.00;4.00
69349;PMS5003;64554;43.452;4.934;2023-06-24T06:14:04;5.00;5.00;4.00
69349;PMS5003;64554;43.452;4.934;2023-06-24T06:16:32;6.00;6.00;4.00
69349;PMS5003;64554;43.452;4.934;2023-06-24T06:18:58;8.00;8.00;5.00
69349;PMS5003;64554;43.452;4.934;2023-06-24T06:21:26;8.50;8.50;4.50
69349;PMS5003;64554;43.452;4.934;2023-06-24T06:23:52;6.00;6.00;4.00
69349;PMS5003;64554;43.452;4.934;2023-06-24T06:26:20;6.80;6.80;4.00
69349;PMS5003;64554;43.452;4.934;2023-06-24T06:28:47;7.00;7.00;3.50
69349;PMS5003;64554;43.452;4.934;2023-06-24T06:31:14;6.00;6.00;5.00
69349;PMS5003;64554;43.452;4.934;2023-06-24T06:33:40;7.20;7.20;4.80
69349;PMS5003;64554;43.452;4.934;2023-06-24T06:36:07;7.50;7.50;5.00
69349;PMS5003;64554;43.452;4.934;2023-06-24T06:38:34;7.00;7.00;5.00
69349;PMS5003;64554;43.452;4.934;2023-06-24T06:41:00;6.75;6.75;5.00
69349;PMS5003;64554;43.452;4.934;2023-06-24T06:43:27;8.40;8.40;5.40
69349;PMS5003;64554;43.452;4.934;2023-06-24T06:45:53;6.00;6.00;5.00
69349;PMS5003;64554;43.452;4.934;2023-06-24T06:48:20;6.00;6.00;3.60
69349;PMS5003;64554;43.452;4.934;2023-06-24T06:50:46;5.00;5.00;3.80
69349;PMS5003;64554;43.452;4.934;2023-06-24T06:53:13;5.60;5.60;3.40
69349;PMS5003;64554;43.452;4.934;2023-06-24T06:55:39;5.60;5.60;4.00
69349;PMS5003;64554;43.452;4.934;2023-06-24T06:58:06;5.00;5.00;4.40
69349;PMS5003;64554;43.452;4.934;2023-06-24T07:00:32;4.67;4.67;3.00
69349;PMS5003;64554;43.452;4.934;2023-06-24T07:02:59;8.00;6.00;4.00
69349;PMS5003;64554;43.452;4.934;2023-06-24T07:05:26;7.00;6.00;4.00
69349;PMS5003;64554;43.452;4.934;2023-06-24T07:07:52;5.60;5.60;3.00
69349;PMS5003;64554;43.452;4.934;2023-06-24T07:10:20;6.60;6.60;4.60
69349;PMS5003;64554;43.452;4.934;2023-06-24T07:12:47;8.00;8.00;5.00
69349;PMS5003;64554;43.452;4.934;2023-06-24T07:15:13;6.00;6.00;4.00
69349;PMS5003;64554;43.452;4.934;2023-06-24T07:17:40;8.80;8.80;6.00
69349;PMS5003;64554;43.452;4.934;2023-06-24T07:20:08;6.00;6.00;5.00
69349;PMS5003;64554;43.452;4.934;2023-06-24T07:22:35;5.25;5.25;4.25
69349;PMS5003;64554;43.452;4.934;2023-06-24T07:25:01;6.20;6.20;3.80
69349;PMS5003;64554;43.452;4.934;2023-06-24T07:27:28;9.40;8.00;6.00
69349;PMS5003;64554;43.452;4.934;2023-06-24T07:29:54;5.00;5.00;4.00
69349;PMS5003;64554;43.452;4.934;2023-06-24T07:32:21;7.00;6.00;4.00
69349;PMS5003;64554;43.452;4.934;2023-06-24T07:34:47;7.00;7.00;4.00
69349;PMS5003;64554;43.452;4.934;2023-06-24T07:37:14;8.00;8.00;6.00
69349;PMS5003;64554;43.452;4.934;2023-06-24T07:39:50;6.00;6.00;4.50
69349;PMS5003;64554;43.452;4.934;2023-06-24T07:42:16;7.75;7.75;5.50
69349;PMS5003;64554;43.452;4.934;2023-06-24T07:44:45;9.20;8.80;6.40
69349;PMS5003;64554;43.452;4.934;2023-06-24T07:47:12;8.00;8.00;5.50
69349;PMS5003;64554;43.452;4.934;2023-06-24T07:49:38;6.40;6.00;5.00
69349;PMS5003;64554;43.452;4.934;2023-06-24T07:52:05;6.60;6.60;4.60
69349;PMS5003;64554;43.452;4.934;2023-06-24T07:54:32;7.00;7.00;5.00
69349;PMS5003;64554;43.452;4.934;2023-06-24T07:56:59;8.00;8.00;6.00
69349;PMS5003;64554;43.452;4.934;2023-06-24T07:59:25;7.50;7.50;5.25
69349;PMS5003;64554;43.452;4.934;2023-06-24T08:01:52;6.60;6.60;5.00
69349;PMS5003;64554;43.452;4.934;2023-06-24T08:04:18;7.40;7.40;5.40
69349;PMS5003;64554;43.452;4.934;2023-06-24T08:06:45;7.80;7.80;4.60
69349;PMS5003;64554;43.452;4.934;2023-06-24T08:09:12;8.60;8.00;5.00
69349;PMS5003;64554;43.452;4.934;2023-06-24T08:11:38;8.60;8.00;5.60
69349;PMS5003;64554;43.452;4.934;2023-06-24T08:14:05;7.25;5.50;4.50
69349;PMS5003;64554;43.452;4.934;2023-06-24T08:16:32;8.40;8.40;5.40
69349;PMS5003;64554;43.452;4.934;2023-06-24T08:18:58;5.00;5.00;4.00
69349;PMS5003;64554;43.452;4.934;2023-06-24T08:21:25;9.60;8.20;5.60
69349;PMS5003;64554;43.452;4.934;2023-06-24T08:23:51;7.00;7.00;4.80
69349;PMS5003;64554;43.452;4.934;2023-06-24T08:26:21;7.40;7.00;6.00
69349;PMS5003;64554;43.452;4.934;2023-06-24T08:28:48;7.80;7.80;5.20
69349;PMS5003;64554;43.452;4.934;2023-06-24T08:31:14;10.20;10.20;5.40
69349;PMS5003;64554;43.452;4.934;2023-06-24T08:33:44;7.00;7.00;5.60
69349;PMS5003;64554;43.452;4.934;2023-06-24T08:36:14;8.00;6.75;4.75
69349;PMS5003;64554;43.452;4.934;2023-06-24T08:38:40;8.40;7.00;5.40
69349;PMS5003;64554;43.452;4.934;2023-06-24T08:41:07;8.75;7.75;4.75
69349;PMS5003;64554;43.452;4.934;2023-06-24T08:43:33;7.50;7.50;5.00
69349;PMS5003;64554;43.452;4.934;2023-06-24T08:46:00;7.00;7.00;5.60
69349;PMS5003;64554;43.452;4.934;2023-06-24T08:48:27;8.20;8.00;6.60
69349;PMS5003;64554;43.452;4.934;2023-06-24T08:50:56;9.40;9.40;7.00
69349;PMS5003;64554;43.452;4.934;2023-06-24T08:53:22;7.60;7.60;5.00
69349;PMS5003;64554;43.452;4.934;2023-06-24T08:55:50;7.20;7.20;5.20
69349;PMS5003;64554;43.452;4.934;2023-06-24T08:58:22;8.60;7.60;5.60
69349;PMS5003;64554;43.452;4.934;2023-06-24T09:00:48;9.00;9.00;7.00
69349;PMS5003;64554;43.452;4.934;2023-06-24T09:03:15;7.40;7.40;6.40
69349;PMS5003;64554;43.452;4.934;2023-06-24T09:05:42;7.50;7.50;5.50
69349;PMS5003;64554;43.452;4.934;2023-06-24T09:08:10;9.20;9.20;6.80
69349;PMS5003;64554;43.452;4.934;2023-06-24T09:10:37;9.00;9.00;6.25
69349;PMS5003;64554;43.452;4.934;2023-06-24T09:13:04;5.25;5.25;4.25
69349;PMS5003;64554;43.452;4.934;2023-06-24T09:15:32;8.40;8.40;5.20
69349;PMS5003;64554;43.452;4.934;2023-06-24T09:17:59;7.00;7.00;5.00
69349;PMS5003;64554;43.452;4.934;2023-06-24T09:20:30;8.00;8.00;5.00
69349;PMS5003;64554;43.452;4.934;2023-06-24T09:22:58;7.75;5.75;4.50
69349;PMS5003;64554;43.452;4.934;2023-06-24T09:25:26;10.20;9.60;6.60
69349;PMS5003;64554;43.452;4.934;2023-06-24T09:27:53;7.40;7.40;5.40
69349;PMS5003;64554;43.452;4.934;2023-06-24T09:30:22;8.20;8.20;6.20
69349;PMS5003;64554;43.452;4.934;2023-06-24T09:32:49;8.50;7.50;5.50
69349;PMS5003;64554;43.452;4.934;2023-06-24T09:35:17;8.00;8.00;5.80
69349;PMS5003;64554;43.452;4.934;2023-06-24T09:37:48;7.75;7.75;5.00
69349;PMS5003;64554;43.452;4.934;2023-06-24T09:40:15;9.60;9.60;7.60
69349;PMS5003;64554;43.452;4.934;2023-06-24T09:43:16;9.80;9.80;7.00
69349;PMS5003;64554;43.452;4.934;2023-06-24T09:45:35;8.50;8.50;5.75
69349;PMS5003;64554;43.452;4.934;2023-06-24T09:48:02;8.33;8.33;5.33
69349;PMS5003;64554;43.452;4.934;2023-06-24T09:50:30;8.40;8.40;5.80
69349;PMS5003;64554;43.452;4.934;2023-06-24T09:52:58;7.40;7.40;5.40
69349;PMS5003;64554;43.452;4.934;2023-06-24T09:55:25;9.67;7.67;4.67
69349;PMS5003;64554;43.452;4.934;2023-06-24T09:57:52;7.50;6.00;4.50
69349;PMS5003;64554;43.452;4.934;2023-06-24T10:00:19;12.00;10.00;6.00
69349;PMS5003;64554;43.452;4.934;2023-06-24T10:02:47;9.60;9.40;5.40
69349;PMS5003;64554;43.452;4.934;2023-06-24T10:05:14;7.60;7.60;5.60
69349;PMS5003;64554;43.452;4.934;2023-06-24T10:07:41;11.40;10.00;6.40
69349;PMS5003;64554;43.452;4.934;2023-06-24T10:10:08;8.00;8.00;7.00
69349;PMS5003;64554;43.452;4.934;2023-06-24T10:12:40;7.60;7.60;6.60
69349;PMS5003;64554;43.452;4.934;2023-06-24T10:15:06;6.80;6.80;5.80
69349;PMS5003;64554;43.452;4.934;2023-06-24T10:17:33;5.75;5.75;4.75
69349;PMS5003;64554;43.452;4.934;2023-06-24T10:20:03;7.25;7.25;6.25
69349;PMS5003;64554;43.452;4.934;2023-06-24T10:22:30;8.00;8.00;5.00
69349;PMS5003;64554;43.452;4.934;2023-06-24T10:25:02;7.60;7.60;6.60
69349;PMS5003;64554;43.452;4.934;2023-06-24T10:27:30;9.00;8.00;6.00
69349;PMS5003;64554;43.452;4.934;2023-06-24T10:30:06;8.60;8.60;7.00
69349;PMS5003;64554;43.452;4.934;2023-06-24T10:32:42;7.75;7.75;5.75
69349;PMS5003;64554;43.452;4.934;2023-06-24T10:35:30;8.20;8.20;6.60
69349;PMS5003;64554;43.452;4.934;2023-06-24T10:37:57;7.00;7.00;5.00
69349;PMS5003;64554;43.452;4.934;2023-06-24T10:40:37;7.60;7.60;5.60
69349;PMS5003;64554;43.452;4.934;2023-06-24T10:43:23;8.25;7.25;5.25
69349;PMS5003;64554;43.452;4.934;2023-06-24T10:45:57;9.80;9.80;7.40
69349;PMS5003;64554;43.452;4.934;2023-06-24T10:48:25;7.75;7.75;5.50
69349;PMS5003;64554;43.452;4.934;2023-06-24T10:50:52;8.50;7.50;6.00
69349;PMS5003;64554;43.452;4.934;2023-06-24T10:53:19;9.00;8.20;6.60
69349;PMS5003;64554;43.452;4.934;2023-06-24T10:55:46;10.20;9.20;5.40
69349;PMS5003;64554;43.452;4.934;2023-06-24T10:58:15;8.75;8.75;5.75
69349;PMS5003;64554;43.452;4.934;2023-06-24T11:00:42;10.75;7.75;5.75
69349;PMS5003;64554;43.452;4.934;2023-06-24T11:03:10;10.75;10.75;7.25
69349;PMS5003;64554;43.452;4.934;2023-06-24T11:05:41;8.00;8.00;5.00
69349;PMS5003;64554;43.452;4.934;2023-06-24T11:08:08;9.40;7.40;6.40
69349;PMS5003;64554;43.452;4.934;2023-06-24T11:10:42;9.60;9.60;6.60
69349;PMS5003;64554;43.452;4.934;2023-06-24T11:13:10;11.40;9.40;6.40
69349;PMS5003;64554;43.452;4.934;2023-06-24T11:15:37;10.75;9.75;6.75
69349;PMS5003;64554;43.452;4.934;2023-06-24T11:18:04;10.25;8.75;6.00
69349;PMS5003;64554;43.452;4.934;2023-06-24T11:20:31;12.00;10.50;7.25
69349;PMS5003;64554;43.452;4.934;2023-06-24T11:22:57;11.60;10.20;6.20
69349;PMS5003;64554;43.452;4.934;2023-06-24T11:25:24;10.25;10.25;7.25
69349;PMS5003;64554;43.452;4.934;2023-06-24T11:27:50;9.50;9.50;6.50
69349;PMS5003;64554;43.452;4.934;2023-06-24T11:30:19;13.00;13.00;8.75
69349;PMS5003;64554;43.452;4.934;2023-06-24T11:32:46;8.25;8.25;6.00
69349;PMS5003;64554;43.452;4.934;2023-06-24T11:35:14;10.50;8.50;7.50
69349;PMS5003;64554;43.452;4.934;2023-06-24T11:37:42;9.67;9.67;7.33
69349;PMS5003;64554;43.452;4.934;2023-06-24T11:40:12;8.60;8.60;6.60
69349;PMS5003;64554;43.452;4.934;2023-06-24T11:42:39;10.75;10.75;6.75
69349;PMS5003;64554;43.452;4.934;2023-06-24T11:45:07;13.75;13.75;6.25
69349;PMS5003;64554;43.452;4.934;2023-06-24T11:47:34;10.50;10.50;7.00
69349;PMS5003;64554;43.452;4.934;2023-06-24T11:50:01;10.00;9.00;7.00
69349;PMS5003;64554;43.452;4.934;2023-06-24T11:52:32;10.20;10.20;7.40
69349;PMS5003;64554;43.452;4.934;2023-06-24T11:55:00;10.80;10.80;7.80
69349;PMS5003;64554;43.452;4.934;2023-06-24T12:00:12;11.20;9.40;6.40
69349;PMS5003;64554;43.452;4.934;2023-06-24T12:02:39;8.25;8.25;6.00
69349;PMS5003;64554;43.452;4.934;2023-06-24T12:05:06;10.00;10.00;6.60
69349;PMS5003;64554;43.452;4.934;2023-06-24T12:07:33;10.00;10.00;6.80
69349;PMS5003;64554;43.452;4.934;2023-06-24T12:10:00;10.75;10.75;6.25
69349;PMS5003;64554;43.452;4.934;2023-06-24T12:12:26;11.40;10.40;7.00
69349;PMS5003;64554;43.452;4.934;2023-06-24T12:14:53;11.60;10.60;7.60
69349;PMS5003;64554;43.452;4.934;2023-06-24T12:17:21;9.60;9.60;7.00
69349;PMS5003;64554;43.452;4.934;2023-06-24T12:19:47;8.80;8.80;6.60
69349;PMS5003;64554;43.452;4.934;2023-06-24T12:22:14;12.00;12.00;10.75
69349;PMS5003;64554;43.452;4.934;2023-06-24T12:24:40;12.00;11.20;8.80
69349;PMS5003;64554;43.452;4.934;2023-06-24T12:27:07;11.00;10.25;7.00
69349;PMS5003;64554;43.452;4.934;2023-06-24T12:29:35;12.20;12.20;8.20
69349;PMS5003;64554;43.452;4.934;2023-06-24T12:32:01;9.25;9.25;6.50
69349;PMS5003;64554;43.452;4.934;2023-06-24T12:34:28;10.40;10.40;7.40
69349;PMS5003;64554;43.452;4.934;2023-06-24T12:36:54;12.00;10.00;7.00
69349;PMS5003;64554;43.452;4.934;2023-06-24T12:39:21;9.80;9.80;6.60
69349;PMS5003;64554;43.452;4.934;2023-06-24T12:41:47;10.60;8.60;6.60
69349;PMS5003;64554;43.452;4.934;2023-06-24T12:44:14;13.00;11.00;7.40
69349;PMS5003;64554;43.452;4.934;2023-06-24T12:46:41;9.75;9.75;6.50
69349;PMS5003;64554;43.452;4.934;2023-06-24T12:49:09;10.60;8.60;6.00
69349;PMS5003;64554;43.452;4.934;2023-06-24T12:51:36;10.20;9.00;6.40
69349;PMS5003;64554;43.452;4.934;2023-06-24T12:54:02;11.60;10.60;7.00
69349;PMS5003;64554;43.452;4.934;2023-06-24T12:56:29;8.00;8.00;6.80
69349;PMS5003;64554;43.452;4.934;2023-06-24T12:58:55;11.00;11.00;7.75
69349;PMS5003;64554;43.452;4.934;2023-06-24T13:01:22;14.00;9.75;6.00
69349;PMS5003;64554;43.452;4.934;2023-06-24T13:03:48;16.50;10.50;8.50
69349;PMS5003;64554;43.452;4.934;2023-06-24T13:06:15;9.00;8.50;6.50
69349;PMS5003;64554;43.452;4.934;2023-06-24T13:08:41;9.00;9.00;6.00
69349;PMS5003;64554;43.452;4.934;2023-06-24T13:11:09;8.00;8.00;6.60
69349;PMS5003;64554;43.452;4.934;2023-06-24T13:13:36;12.00;11.00;8.00
69349;PMS5003;64554;43.452;4.934;2023-06-24T13:16:02;10.40;10.40;7.40
69349;PMS5003;64554;43.452;4.934;2023-06-24T13:18:29;8.75;8.75;6.25
69349;PMS5003;64554;43.452;4.934;2023-06-24T13:20:55;8.00;8.00;6.00
69349;PMS5003;64554;43.452;4.934;2023-06-24T13:23:40;11.00;11.00;8.00
69349;PMS5003;64554;43.452;4.934;2023-06-24T13:26:06;17.50;11.00;8.00
69349;PMS5003;64554;43.452;4.934;2023-06-24T13:28:33;13.20;13.20;7.20
69349;PMS5003;64554;43.452;4.934;2023-06-24T13:30:59;9.00;9.00;7.00
69349;PMS5003;64554;43.452;4.934;2023-06-24T13:33:26;10.25;10.25;6.25
69349;PMS5003;64554;43.452;4.934;2023-06-24T13:35:53;13.00;11.00;7.00
69349;PMS5003;64554;43.452;4.934;2023-06-24T13:38:20;8.00;8.00;6.00
69349;PMS5003;64554;43.452;4.934;2023-06-24T13:40:47;14.40;14.40;11.40
69349;PMS5003;64554;43.452;4.934;2023-06-24T13:43:14;10.00;10.00;7.00
69349;PMS5003;64554;43.452;4.934;2023-06-24T13:45:41;6.00;6.00;4.60
69349;PMS5003;64554;43.452;4.934;2023-06-24T13:48:08;10.40;10.40;8.20
69349;PMS5003;64554;43.452;4.934;2023-06-24T13:50:34;7.60;7.40;4.60
69349;PMS5003;64554;43.452;4.934;2023-06-24T13:53:01;10.00;9.00;7.75
69349;PMS5003;64554;43.452;4.934;2023-06-24T13:55:28;9.00;7.00;5.00
69349;PMS5003;64554;43.452;4.934;2023-06-24T13:57:55;8.80;8.80;6.80
69349;PMS5003;64554;43.452;4.934;2023-06-24T14:00:21;10.00;10.00;6.00
69349;PMS5003;64554;43.452;4.934;2023-06-24T14:02:48;11.40;10.00;6.40
69349;PMS5003;64554;43.452;4.934;2023-06-24T14:05:15;9.25;8.25;5.25
69349;PMS5003;64554;43.452;4.934;2023-06-24T14:07:41;10.80;10.80;6.80
69349;PMS5003;64554;43.452;4.934;2023-06-24T14:10:08;10.00;9.00;6.00
69349;PMS5003;64554;43.452;4.934;2023-06-24T14:12:35;10.00;9.75;5.75
69349;PMS5003;64554;43.452;4.934;2023-06-24T14:15:01;6.80;6.80;4.80
69349;PMS5003;64554;43.452;4.934;2023-06-24T14:17:28;6.50;6.50;4.00
69349;PMS5003;64554;43.452;4.934;2023-06-24T14:19:55;8.40;8.40;6.00
69349;PMS5003;64554;43.452;4.934;2023-06-24T14:22:22;8.00;8.00;6.00
69349;PMS5003;64554;43.452;4.934;2023-06-24T14:24:49;8.00;8.00;5.00
69349;PMS5003;64554;43.452;4.934;2023-06-24T14:27:15;8.50;8.50;5.00